Time;durP1;ratioP1;P1;durP2;ratioP2;P2;SDS_P1;SDS_P2;PMS_P1;PMS_P2;Temp;Humidity;BMP_temperature;BMP_pressure;BME280_temperature;BME280_humidity;BME280_pressure;Samples;Min_cycle;Max_cycle;Signal;HPM_P1;HPM_P2
2021/07/06 00:02:17;;;;;;;21.10;15.77;;;18.00;99.90;;;;;;5010791;28;20201;-70
2021/07/06 00:04:45;;;;;;;26.60;17.45;;;18.00;99.90;;;;;;5013010;28;20208;-71
2021/07/06 00:07:15;;;;;;;24.85;17.10;;;18.00;99.90;;;;;;5007785;28;20699;-69
2021/07/06 00:09:42;;;;;;;22.58;16.42;;;18.00;99.90;;;;;;5016778;28;20236;-69
2021/07/06 00:12:08;;;;;;;27.35;17.63;;;18.10;99.90;;;;;;5002317;28;20673;-71
2021/07/06 00:14:38;;;;;;;24.70;17.40;;;18.00;99.90;;;;;;5015054;28;20248;-69
2021/07/06 00:17:05;;;;;;;30.05;18.38;;;18.00;99.90;;;;;;5012782;28;20200;-70
2021/07/06 00:19:32;;;;;;;24.67;17.65;;;18.10;99.90;;;;;;5014940;28;20220;-69
2021/07/06 00:21:59;;;;;;;26.30;17.50;;;18.10;99.90;;;;;;5014359;28;20590;-70
2021/07/06 00:24:27;;;;;;;24.48;16.20;;;18.10;99.90;;;;;;5009988;28;20236;-69
2021/07/06 00:26:53;;;;;;;24.52;17.20;;;18.10;99.90;;;;;;5010013;28;20275;-69
2021/07/06 00:29:20;;;;;;;25.85;15.82;;;18.00;99.90;;;;;;4996898;28;20205;-71
2021/07/06 00:31:47;;;;;;;21.95;15.10;;;18.00;99.90;;;;;;5010875;28;20231;-69
2021/07/06 00:34:14;;;;;;;21.63;16.75;;;18.10;99.90;;;;;;5013549;28;20630;-69
2021/07/06 00:36:41;;;;;;;24.70;16.48;;;18.10;99.90;;;;;;5007291;28;20239;-70
2021/07/06 00:39:08;;;;;;;27.27;16.35;;;18.10;99.90;;;;;;5011918;28;20204;-70
2021/07/06 00:41:37;;;;;;;24.58;16.98;;;18.10;99.90;;;;;;5012733;28;20200;-69
2021/07/06 00:44:04;;;;;;;24.98;16.85;;;18.10;99.90;;;;;;5010787;28;20818;-71
2021/07/06 00:46:32;;;;;;;22.60;16.38;;;18.10;99.90;;;;;;5012169;28;20258;-69
2021/07/06 00:48:59;;;;;;;26.02;16.52;;;18.10;99.90;;;;;;5011856;28;20193;-69
2021/07/06 00:51:25;;;;;;;23.02;17.08;;;18.10;99.90;;;;;;5012071;28;20352;-68
2021/07/06 00:53:52;;;;;;;21.00;16.48;;;18.10;99.90;;;;;;5012777;28;20220;-70
2021/07/06 00:56:19;;;;;;;23.48;15.43;;;18.10;99.90;;;;;;5012627;28;20212;-70
2021/07/06 00:58:48;;;;;;;20.50;15.07;;;18.10;99.90;;;;;;4991381;28;20274;-70
2021/07/06 01:01:16;;;;;;;22.90;15.13;;;18.10;99.90;;;;;;5012178;28;20207;-70
2021/07/06 01:03:43;;;;;;;20.52;14.65;;;18.10;99.90;;;;;;5011621;28;20608;-69
2021/07/06 01:06:10;;;;;;;19.58;13.25;;;18.10;99.90;;;;;;5012430;28;20668;-69
2021/07/06 01:08:37;;;;;;;22.15;12.52;;;18.10;99.90;;;;;;5001994;28;20547;-70
2021/07/06 01:11:05;;;;;;;15.68;12.70;;;18.10;99.90;;;;;;5013990;28;20542;-69
2021/07/06 01:13:33;;;;;;;18.40;12.50;;;18.10;99.90;;;;;;5001665;28;20208;-70
2021/07/06 01:16:02;;;;;;;17.48;12.38;;;18.10;99.90;;;;;;5011391;28;20265;-69
2021/07/06 01:18:28;;;;;;;19.70;12.52;;;18.10;99.90;;;;;;5011238;28;20206;-69
2021/07/06 01:20:57;;;;;;;14.45;11.23;;;18.10;99.90;;;;;;5014384;28;20204;-71
2021/07/06 01:23:29;;;;;;;15.82;12.27;;;18.10;99.90;;;;;;5012202;28;20233;-69
2021/07/06 01:25:56;;;;;;;;;;;18.10;99.90;;;;;;5012874;28;20197;-70
2021/07/06 01:28:23;;;;;;;17.73;11.73;;;18.10;99.90;;;;;;5009258;28;20394;-70
2021/07/06 01:30:50;;;;;;;18.25;12.55;;;18.10;99.90;;;;;;4995395;28;20262;-70
2021/07/06 01:33:22;;;;;;;17.98;11.65;;;18.10;99.90;;;;;;5005156;28;20187;-69
2021/07/06 01:35:50;;;;;;;16.58;12.00;;;18.10;99.90;;;;;;5009701;28;20223;-69
2021/07/06 01:38:16;;;;;;;13.98;11.90;;;18.10;99.90;;;;;;5010131;28;20319;-69
2021/07/06 01:40:44;;;;;;;14.77;12.27;;;18.10;99.90;;;;;;5011878;28;20664;-70
2021/07/06 01:43:11;;;;;;;18.33;12.43;;;18.10;99.90;;;;;;4993619;28;20719;-70
2021/07/06 01:45:39;;;;;;;15.20;12.60;;;18.10;99.90;;;;;;5012916;28;20208;-69
2021/07/06 01:48:06;;;;;;;;;;;18.10;99.90;;;;;;5008741;28;19965;-69
2021/07/06 01:50:34;;;;;;;23.15;13.32;;;18.10;99.90;;;;;;5012753;28;20053;-69
2021/07/06 01:53:02;;;;;;;17.00;12.10;;;18.10;99.90;;;;;;5006291;28;20207;-68
2021/07/06 01:55:31;;;;;;;;;;;18.10;99.90;;;;;;5007713;28;20307;-69
2021/07/06 01:57:59;;;;;;;;;;;18.10;99.90;;;;;;5011821;28;20386;-68
2021/07/06 02:00:28;;;;;;;15.55;11.82;;;18.10;99.90;;;;;;5009904;28;20181;-69
2021/07/06 02:02:56;;;;;;;14.55;11.65;;;18.10;99.90;;;;;;5009321;28;20246;-69
2021/07/06 02:05:30;;;;;;;18.17;12.82;;;18.10;99.90;;;;;;5010627;28;20197;-69
2021/07/06 02:07:57;;;;;;;17.08;11.77;;;18.10;99.90;;;;;;5011341;28;20283;-70
2021/07/06 02:10:27;;;;;;;24.55;12.65;;;18.10;99.90;;;;;;5009733;28;20188;-70
2021/07/06 02:12:54;;;;;;;17.23;11.93;;;18.00;99.90;;;;;;5010637;28;20197;-69
2021/07/06 02:15:22;;;;;;;17.38;11.70;;;18.10;99.90;;;;;;5010058;28;20232;-70
2021/07/06 02:17:51;;;;;;;20.05;12.57;;;18.00;99.90;;;;;;5010294;28;20749;-70
2021/07/06 02:20:19;;;;;;;13.43;11.50;;;18.10;99.90;;;;;;5009649;28;20207;-69
2021/07/06 02:22:47;;;;;;;13.93;11.15;;;18.00;99.90;;;;;;5013392;28;20243;-69
2021/07/06 02:25:16;;;;;;;23.73;11.38;;;18.10;99.90;;;;;;5006918;28;20197;-70
2021/07/06 02:27:45;;;;;;;15.70;10.65;;;18.10;99.90;;;;;;4998375;28;20262;-71
2021/07/06 02:30:12;;;;;;;;;;;18.10;99.90;;;;;;5009351;28;20200;-70
2021/07/06 02:32:41;;;;;;;15.50;10.93;;;18.10;99.90;;;;;;5010960;28;20394;-70
2021/07/06 02:35:11;;;;;;;15.18;9.90;;;18.10;99.90;;;;;;5008562;28;20703;-69
2021/07/06 02:37:38;;;;;;;15.98;10.50;;;18.10;99.90;;;;;;5006577;28;20209;-69
2021/07/06 02:40:07;;;;;;;11.13;9.18;;;18.10;99.90;;;;;;5006879;28;20212;-70
2021/07/06 02:42:34;;;;;;;12.48;9.25;;;18.10;99.90;;;;;;5010318;28;20224;-69
2021/07/06 02:45:03;;;;;;;10.18;8.63;;;18.10;99.90;;;;;;5011570;28;20250;-70
2021/07/06 02:47:30;;;;;;;15.02;8.88;;;18.10;99.90;;;;;;5012687;28;20647;-70
2021/07/06 02:49:58;;;;;;;15.45;9.18;;;18.10;99.90;;;;;;5011857;28;20235;-68
2021/07/06 02:52:25;;;;;;;14.48;9.20;;;18.10;99.90;;;;;;5009733;28;20200;-69
2021/07/06 02:54:52;;;;;;;14.23;8.70;;;18.10;99.90;;;;;;5008903;28;20274;-70
2021/07/06 03:00:01;;;;;;;11.07;7.90;;;18.10;99.90;;;;;;5007173;28;20208;-70
2021/07/06 03:02:28;;;;;;;10.95;7.13;;;18.10;99.90;;;;;;5013407;28;20715;-70
2021/07/06 03:04:55;;;;;;;12.90;7.90;;;18.10;99.90;;;;;;4998917;28;20204;-71
2021/07/06 03:07:23;;;;;;;12.77;6.53;;;18.10;99.90;;;;;;5015829;28;20655;-70
2021/07/06 03:09:50;;;;;;;12.50;7.05;;;18.10;99.90;;;;;;5012269;28;20833;-70
2021/07/06 03:12:17;;;;;;;11.18;6.80;;;18.10;99.90;;;;;;5013195;28;20201;-69
2021/07/06 03:14:44;;;;;;;9.73;6.30;;;18.10;99.90;;;;;;5009484;28;20220;-71
2021/07/06 03:17:11;;;;;;;10.60;6.25;;;18.10;99.90;;;;;;5016218;28;20337;-71
2021/07/06 03:19:37;;;;;;;6.82;5.78;;;18.10;99.90;;;;;;5012523;28;20258;-70
2021/07/06 03:22:04;;;;;;;12.82;5.35;;;18.10;99.90;;;;;;5014132;28;20200;-69
2021/07/06 03:24:33;;;;;;;7.60;5.28;;;18.10;99.90;;;;;;5012087;28;20290;-69
2021/07/06 03:26:59;;;;;;;7.28;5.35;;;18.10;99.90;;;;;;5014876;28;20204;-70
2021/07/06 03:29:26;;;;;;;9.43;5.47;;;18.10;99.90;;;;;;5010720;28;20207;-70
2021/07/06 03:31:53;;;;;;;6.53;5.30;;;18.00;99.90;;;;;;5013179;28;20215;-69
2021/07/06 03:34:20;;;;;;;7.55;5.05;;;18.00;99.90;;;;;;5013931;28;20200;-69
2021/07/06 03:36:47;;;;;;;7.82;5.20;;;18.00;99.90;;;;;;5015753;28;20649;-71
2021/07/06 03:39:13;;;;;;;11.52;5.05;;;18.00;99.90;;;;;;5012392;28;20719;-70
2021/07/06 03:41:42;;;;;;;10.23;5.25;;;18.00;99.90;;;;;;5014837;28;20684;-69
2021/07/06 03:44:08;;;;;;;6.63;5.20;;;18.00;99.90;;;;;;5012173;28;20201;-69
2021/07/06 03:46:35;;;;;;;8.65;4.70;;;18.00;99.90;;;;;;5013405;28;20626;-70
2021/07/06 03:49:03;;;;;;;7.32;5.25;;;18.00;99.90;;;;;;5007886;28;20323;-70
2021/07/06 03:51:32;;;;;;;9.40;5.47;;;18.10;99.90;;;;;;5012947;28;20120;-69
2021/07/06 03:53:59;;;;;;;5.10;4.60;;;18.10;99.90;;;;;;5013816;28;20274;-69
2021/07/06 03:56:25;;;;;;;7.53;5.28;;;18.10;99.90;;;;;;5010992;28;20248;-70
2021/07/06 03:58:53;;;;;;;6.28;4.50;;;18.10;99.90;;;;;;4997416;28;20209;-70
2021/07/06 04:01:20;;;;;;;5.25;4.75;;;18.10;99.90;;;;;;5009441;28;20250;-70
2021/07/06 04:03:47;;;;;;;9.32;4.50;;;18.10;99.90;;;;;;5014315;28;20199;-69
2021/07/06 04:06:14;;;;;;;6.40;4.65;;;18.10;99.90;;;;;;5012366;28;20208;-69
2021/07/06 04:08:41;;;;;;;5.47;3.92;;;18.10;99.90;;;;;;5013421;28;20212;-70
2021/07/06 04:11:07;;;;;;;5.47;4.07;;;18.10;99.90;;;;;;5011045;28;20196;-70
2021/07/06 04:13:34;;;;;;;5.78;3.88;;;18.10;99.90;;;;;;5014972;28;20607;-70
2021/07/06 04:16:03;;;;;;;4.50;3.63;;;18.10;99.90;;;;;;5011173;28;20235;-69
2021/07/06 04:18:30;;;;;;;5.32;3.70;;;18.10;99.90;;;;;;5012787;28;20723;-70
2021/07/06 04:20:56;;;;;;;8.18;4.18;;;18.10;99.90;;;;;;5012848;28;20602;-70
2021/07/06 04:23:23;;;;;;;5.07;4.00;;;18.10;99.90;;;;;;5014584;28;20236;-70
2021/07/06 04:25:50;;;;;;;4.30;3.90;;;18.20;99.90;;;;;;4992988;28;20672;-71
2021/07/06 04:28:17;;;;;;;4.70;3.70;;;18.20;99.90;;;;;;5012988;28;20203;-70
2021/07/06 04:30:44;;;;;;;6.78;3.95;;;18.20;99.90;;;;;;5008405;28;20726;-70
2021/07/06 04:33:12;;;;;;;6.60;3.55;;;18.20;99.90;;;;;;5011648;28;20247;-70
2021/07/06 04:35:39;;;;;;;4.22;3.10;;;18.20;99.90;;;;;;5011105;28;20213;-69
2021/07/06 04:38:05;;;;;;;11.70;3.63;;;18.30;99.90;;;;;;4996498;28;20204;-70
2021/07/06 04:40:32;;;;;;;6.10;2.90;;;18.20;99.90;;;;;;5011015;28;20617;-70
2021/07/06 04:43:00;;;;;;;4.38;3.10;;;18.20;99.90;;;;;;5015027;28;20212;-70
2021/07/06 04:45:27;;;;;;;6.25;3.13;;;18.20;99.90;;;;;;5009131;28;20201;-71
2021/07/06 04:47:54;;;;;;;5.13;2.70;;;18.30;99.90;;;;;;5010843;28;20204;-70
2021/07/06 04:50:22;;;;;;;6.32;2.72;;;18.30;99.90;;;;;;5007078;28;20247;-72
2021/07/06 04:52:49;;;;;;;4.03;2.90;;;18.30;99.90;;;;;;5012711;28;20592;-71
2021/07/06 04:55:18;;;;;;;5.28;2.85;;;18.30;99.90;;;;;;5003980;28;20228;-69
2021/07/06 04:57:45;;;;;;;6.90;2.70;;;18.30;99.90;;;;;;5012190;28;20212;-72
2021/07/06 05:00:13;;;;;;;7.25;2.60;;;18.30;99.90;;;;;;5004183;28;20213;-70
2021/07/06 05:02:41;;;;;;;5.68;3.03;;;18.30;99.90;;;;;;4994845;28;20210;-71
2021/07/06 05:05:09;;;;;;;5.60;2.80;;;18.40;99.90;;;;;;5010327;28;20211;-70
2021/07/06 05:07:38;;;;;;;4.78;2.92;;;18.40;99.90;;;;;;5012158;28;20664;-71
2021/07/06 05:10:07;;;;;;;4.82;3.20;;;18.40;99.90;;;;;;5006007;28;20201;-71
2021/07/06 05:12:34;;;;;;;9.38;3.17;;;18.40;99.90;;;;;;5010205;28;20766;-72
2021/07/06 05:15:00;;;;;;;3.67;2.80;;;18.40;99.90;;;;;;5012256;28;20251;-72
2021/07/06 05:17:27;;;;;;;3.80;2.78;;;18.40;99.90;;;;;;5013261;28;20213;-73
2021/07/06 05:19:54;;;;;;;6.78;2.97;;;18.40;99.90;;;;;;5013036;28;20208;-72
2021/07/06 05:22:22;;;;;;;5.75;2.92;;;18.40;99.90;;;;;;5010234;28;20250;-71
2021/07/06 05:24:50;;;;;;;5.15;2.90;;;18.40;99.90;;;;;;5012364;28;20207;-71
2021/07/06 05:27:17;;;;;;;8.05;2.80;;;18.50;99.90;;;;;;5010974;28;20603;-72
2021/07/06 05:29:45;;;;;;;5.72;2.70;;;18.50;99.90;;;;;;5009781;28;20557;-70
2021/07/06 05:32:12;;;;;;;7.25;2.88;;;18.50;99.90;;;;;;5010301;28;20691;-71
2021/07/06 05:34:39;;;;;;;5.80;2.70;;;18.50;99.90;;;;;;5009889;28;20201;-70
2021/07/06 05:37:06;;;;;;;4.88;2.63;;;18.50;99.90;;;;;;5007094;28;20219;-71
2021/07/06 05:39:33;;;;;;;3.03;2.60;;;18.60;99.90;;;;;;5010836;28;20204;-70
2021/07/06 05:42:04;;;;;;;11.85;2.92;;;18.60;99.90;;;;;;4995412;28;20200;-70
2021/07/06 05:44:31;;;;;;;5.70;2.90;;;18.60;99.90;;;;;;5012338;28;20215;-69
2021/07/06 05:46:57;;;;;;;;;;;18.60;99.90;;;;;;5008173;28;20544;-71
2021/07/06 05:49:24;;;;;;;3.70;2.88;;;18.70;99.90;;;;;;5006293;28;20456;-69
2021/07/06 05:51:51;;;;;;;4.70;2.95;;;18.70;99.90;;;;;;5011961;28;20251;-70
2021/07/06 05:54:18;;;;;;;9.82;2.90;;;18.70;99.90;;;;;;5008138;28;20248;-71
2021/07/06 05:56:45;;;;;;;7.22;3.20;;;18.70;99.90;;;;;;5005778;28;20213;-69
2021/07/06 05:59:13;;;;;;;6.25;2.85;;;18.70;99.90;;;;;;5013175;28;20708;-69
2021/07/06 06:01:39;;;;;;;5.47;2.97;;;18.70;99.90;;;;;;5007243;28;20216;-70
2021/07/06 06:04:06;;;;;;;6.47;3.25;;;18.70;99.90;;;;;;5008816;28;20255;-71
2021/07/06 06:06:33;;;;;;;6.72;3.25;;;18.80;99.90;;;;;;5007815;28;20665;-71
2021/07/06 06:09:00;;;;;;;8.50;3.60;;;18.80;99.90;;;;;;5011482;28;20204;-70
2021/07/06 06:11:27;;;;;;;6.78;3.22;;;18.80;99.90;;;;;;5010380;28;20212;-71
2021/07/06 06:13:53;;;;;;;7.63;3.20;;;18.80;99.90;;;;;;5010939;28;20706;-69
2021/07/06 06:16:22;;;;;;;4.75;3.17;;;18.80;99.90;;;;;;5010943;28;20353;-69
2021/07/06 06:18:54;;;;;;;10.45;3.17;;;18.80;99.90;;;;;;5011982;28;20247;-70
2021/07/06 06:21:21;;;;;;;4.35;1.60;;;18.80;99.90;;;;;;5006421;28;20728;-69
2021/07/06 06:23:48;;;;;;;8.68;2.05;;;18.70;99.90;;;;;;5008445;28;21077;-71
2021/07/06 06:26:14;;;;;;;4.97;1.50;;;18.70;99.90;;;;;;5009416;28;20208;-69
2021/07/06 06:28:41;;;;;;;4.38;1.70;;;18.70;99.90;;;;;;5011371;28;20687;-70
2021/07/06 06:31:09;;;;;;;3.55;1.77;;;18.70;99.90;;;;;;5006497;28;20237;-71
2021/07/06 06:33:37;;;;;;;8.13;1.55;;;18.60;99.90;;;;;;5010591;28;20640;-69
2021/07/06 06:36:04;;;;;;;8.15;2.30;;;18.60;99.90;;;;;;4988508;28;20225;-70
2021/07/06 06:38:31;;;;;;;4.60;1.42;;;18.60;99.90;;;;;;5012054;28;20719;-70
2021/07/06 06:40:57;;;;;;;10.80;1.48;;;18.50;99.90;;;;;;5009563;28;20208;-72
2021/07/06 06:43:24;;;;;;;11.52;1.40;;;18.50;99.90;;;;;;5006601;28;20196;-70
2021/07/06 06:45:51;;;;;;;5.63;1.08;;;18.50;99.90;;;;;;5007700;28;20309;-70
2021/07/06 06:48:18;;;;;;;4.65;1.42;;;18.50;99.90;;;;;;5009268;28;20664;-72
2021/07/06 06:50:46;;;;;;;6.63;1.30;;;18.50;99.90;;;;;;5008924;28;20602;-70
2021/07/06 06:53:13;;;;;;;5.43;1.30;;;18.40;99.90;;;;;;5009323;28;20217;-71
2021/07/06 06:55:40;;;;;;;5.28;1.23;;;18.40;99.90;;;;;;4998312;28;20224;-72
2021/07/06 06:58:07;;;;;;;5.15;1.23;;;18.40;99.90;;;;;;5006843;28;20216;-69
2021/07/06 07:00:35;;;;;;;6.20;1.60;;;18.40;99.90;;;;;;5008976;28;20219;-71
2021/07/06 07:03:01;;;;;;;7.72;1.17;;;18.30;99.90;;;;;;5003249;28;20225;-71
2021/07/06 07:05:28;;;;;;;3.10;1.00;;;18.30;99.90;;;;;;5001540;28;20208;-71
2021/07/06 07:07:58;;;;;;;3.45;1.10;;;18.30;99.90;;;;;;5007922;28;20609;-70
2021/07/06 07:10:25;;;;;;;5.40;1.52;;;18.30;99.90;;;;;;5011751;28;20200;-69
2021/07/06 07:12:53;;;;;;;5.63;1.60;;;18.30;99.90;;;;;;5009124;28;20200;-72
2021/07/06 07:15:21;;;;;;;4.97;1.40;;;18.30;99.90;;;;;;5009411;28;20209;-69
2021/07/06 07:17:47;;;;;;;6.53;1.92;;;18.30;99.90;;;;;;5007467;28;20205;-71
2021/07/06 07:20:15;;;;;;;4.22;1.60;;;18.30;99.90;;;;;;4991861;28;20208;-71
2021/07/06 07:22:43;;;;;;;3.67;1.15;;;18.30;99.90;;;;;;5003047;28;20251;-71
2021/07/06 07:25:12;;;;;;;7.75;1.70;;;18.30;99.90;;;;;;4988467;28;20216;-70
2021/07/06 07:27:39;;;;;;;10.43;1.40;;;18.30;99.90;;;;;;5006033;28;20196;-70
2021/07/06 07:30:07;;;;;;;7.60;1.50;;;18.30;99.90;;;;;;5011892;28;20287;-70
2021/07/06 07:32:34;;;;;;;5.55;1.42;;;18.40;99.90;;;;;;5008370;28;20204;-70
2021/07/06 07:35:01;;;;;;;6.85;1.35;;;18.40;99.90;;;;;;5011858;28;20204;-70
2021/07/06 07:37:27;;;;;;;7.32;1.60;;;18.40;99.90;;;;;;4994381;28;20707;-71
2021/07/06 07:39:54;;;;;;;5.22;1.20;;;18.40;99.90;;;;;;5010256;28;20615;-69
2021/07/06 07:42:23;;;;;;;4.25;1.27;;;18.50;99.90;;;;;;5006465;28;20649;-69
2021/07/06 07:44:50;;;;;;;2.78;1.40;;;18.50;99.90;;;;;;5011436;28;20197;-72
2021/07/06 07:47:17;;;;;;;7.78;1.75;;;18.60;99.90;;;;;;5008371;28;20201;-69
2021/07/06 07:49:44;;;;;;;7.60;2.00;;;18.60;99.90;;;;;;5015354;28;20204;-70
2021/07/06 07:52:11;;;;;;;4.45;1.70;;;18.70;99.90;;;;;;5014329;28;20205;-74
2021/07/06 07:54:38;;;;;;;6.43;1.40;;;18.70;99.90;;;;;;5014316;28;20722;-71
2021/07/06 07:57:06;;;;;;;5.25;1.38;;;18.80;99.90;;;;;;5009387;28;20282;-71
2021/07/06 07:59:35;;;;;;;4.22;1.10;;;18.80;99.90;;;;;;5014959;28;20203;-72
2021/07/06 08:02:01;;;;;;;8.25;1.25;;;18.90;99.90;;;;;;5003050;28;20204;-71
2021/07/06 08:04:28;;;;;;;2.25;1.30;;;18.90;99.90;;;;;;5016089;28;20200;-72
2021/07/06 08:06:55;;;;;;;5.53;1.30;;;18.90;99.90;;;;;;5008319;28;20208;-71
2021/07/06 08:09:22;;;;;;;4.97;1.20;;;19.00;99.90;;;;;;5013845;28;20209;-70
2021/07/06 08:11:49;;;;;;;5.20;1.20;;;19.00;99.80;;;;;;5000336;28;20208;-71
2021/07/06 08:14:15;;;;;;;4.68;1.40;;;19.00;99.30;;;;;;5013020;28;20262;-71
2021/07/06 08:16:44;;;;;;;4.75;1.10;;;19.10;98.80;;;;;;5009123;28;20251;-68
2021/07/06 08:19:10;;;;;;;5.70;1.27;;;19.10;98.50;;;;;;5013600;28;20583;-70
2021/07/06 08:21:37;;;;;;;3.53;1.30;;;19.10;98.00;;;;;;5014113;28;20208;-70
2021/07/06 08:24:05;;;;;;;4.03;1.27;;;19.10;97.50;;;;;;5010761;28;20696;-72
2021/07/06 08:26:32;;;;;;;3.45;1.50;;;19.10;96.80;;;;;;4989339;28;20497;-70
2021/07/06 08:28:59;;;;;;;3.92;1.40;;;19.20;96.50;;;;;;5006673;28;21686;-70
2021/07/06 08:31:26;;;;;;;7.75;1.50;;;19.20;96.40;;;;;;5010652;28;20220;-70
2021/07/06 08:33:54;;;;;;;5.70;1.42;;;19.30;96.40;;;;;;5011590;28;20196;-71
2021/07/06 08:36:20;;;;;;;4.07;1.55;;;19.40;96.40;;;;;;5010503;28;20223;-70
2021/07/06 08:38:47;;;;;;;9.23;1.60;;;19.40;96.30;;;;;;5012213;28;20200;-69
2021/07/06 08:41:14;;;;;;;13.18;1.50;;;19.50;96.10;;;;;;5007213;28;20259;-70
2021/07/06 08:43:55;;;;;;;5.20;1.20;;;19.60;95.80;;;;;;5013521;28;20204;-71
2021/07/06 08:46:22;;;;;;;5.18;1.10;;;19.60;95.60;;;;;;5010304;28;20212;-69
2021/07/06 08:48:50;;;;;;;3.05;1.40;;;19.60;95.50;;;;;;5011928;28;20208;-70
2021/07/06 08:51:20;;;;;;;5.65;1.40;;;19.70;95.40;;;;;;5009065;28;20680;-70
2021/07/06 08:53:48;;;;;;;5.18;1.20;;;19.70;95.50;;;;;;5013218;28;20214;-69
2021/07/06 08:56:15;;;;;;;5.82;1.13;;;19.70;95.40;;;;;;5011920;28;20210;-69
2021/07/06 08:58:42;;;;;;;5.13;1.58;;;19.70;95.30;;;;;;5011245;28;20219;-70
2021/07/06 09:01:09;;;;;;;3.28;1.13;;;19.70;95.20;;;;;;5011969;28;20208;-70
2021/07/06 09:03:53;;;;;;;6.45;1.40;;;19.70;95.30;;;;;;5013354;28;20232;-70
2021/07/06 09:06:21;;;;;;;3.85;1.25;;;19.80;95.50;;;;;;5007985;28;20279;-71
2021/07/06 09:08:52;;;;;;;3.85;1.23;;;19.80;95.40;;;;;;5013116;28;20996;-71
2021/07/06 09:11:19;;;;;;;6.03;1.50;;;19.90;95.00;;;;;;5008387;28;20217;-70
2021/07/06 09:13:46;;;;;;;8.88;1.23;;;19.90;93.90;;;;;;5013454;28;20213;-71
2021/07/06 09:16:20;;;;;;;8.50;1.45;;;19.90;93.10;;;;;;5010469;28;20220;-68
2021/07/06 09:18:48;;;;;;;5.18;1.17;;;19.90;92.30;;;;;;5009498;28;20684;-69
2021/07/06 09:21:15;;;;;;;8.18;1.48;;;19.80;91.90;;;;;;5010061;28;20295;-70
2021/07/06 09:23:44;;;;;;;16.83;1.85;;;19.80;91.80;;;;;;5010912;28;20620;-70
2021/07/06 09:26:14;;;;;;;10.07;1.60;;;19.80;91.60;;;;;;5008008;28;20219;-69
2021/07/06 09:28:42;;;;;;;7.82;1.60;;;19.80;91.60;;;;;;5007578;28;20672;-70
2021/07/06 09:31:27;;;;;;;5.07;1.25;;;19.70;91.60;;;;;;5010509;28;20232;-71
2021/07/06 09:33:58;;;;;;;12.00;2.05;;;19.80;91.60;;;;;;5011262;28;20220;-70
2021/07/06 09:36:32;;;;;;;7.30;1.52;;;19.80;91.70;;;;;;5009914;28;20239;-70
2021/07/06 09:39:10;;;;;;;8.43;1.80;;;19.80;91.60;;;;;;5009490;28;20204;-71
2021/07/06 09:41:39;;;;;;;6.60;1.40;;;19.90;91.50;;;;;;5011169;28;20223;-71
2021/07/06 09:44:21;;;;;;;9.32;1.45;;;19.90;91.10;;;;;;5013282;28;20684;-69
2021/07/06 09:46:50;;;;;;;9.90;1.63;;;20.00;90.80;;;;;;5005901;28;20244;-71
2021/07/06 09:49:19;;;;;;;7.28;1.35;;;20.00;90.70;;;;;;5008884;28;20201;-70
2021/07/06 09:51:46;;;;;;;8.00;1.40;;;20.10;90.40;;;;;;4988489;28;20205;-70
2021/07/06 09:54:29;;;;;;;13.57;1.98;;;20.10;89.80;;;;;;5011495;28;20303;-71
2021/07/06 09:57:11;;;;;;;5.18;1.40;;;20.10;89.60;;;;;;5007629;28;20211;-69
2021/07/06 09:59:38;;;;;;;10.32;1.40;;;20.00;89.60;;;;;;4992935;28;20213;-70
2021/07/06 10:02:04;;;;;;;4.15;1.25;;;20.00;89.70;;;;;;5008940;28;20202;-70
2021/07/06 10:04:36;;;;;;;9.00;1.50;;;20.00;89.50;;;;;;5008815;28;20685;-70
2021/07/06 10:07:03;;;;;;;9.80;2.08;;;19.90;89.20;;;;;;5008979;28;20216;-70
2021/07/06 10:09:34;;;;;;;12.07;2.10;;;19.90;89.10;;;;;;5009516;28;20270;-70
2021/07/06 10:12:01;;;;;;;6.57;1.48;;;19.90;89.20;;;;;;5010581;28;20651;-70
2021/07/06 10:14:28;;;;;;;10.43;1.58;;;20.00;89.30;;;;;;5010779;28;20208;-71
2021/07/06 10:16:56;;;;;;;10.00;1.63;;;20.00;89.00;;;;;;4991335;28;20216;-70
2021/07/06 10:19:23;;;;;;;7.68;1.17;;;20.10;88.80;;;;;;4993751;28;20627;-70
2021/07/06 10:21:50;;;;;;;7.78;1.40;;;20.10;88.60;;;;;;4992472;28;20747;-69
2021/07/06 10:24:19;;;;;;;10.32;1.25;;;20.20;88.50;;;;;;5009730;28;20232;-70
2021/07/06 10:26:49;;;;;;;10.35;1.60;;;20.30;88.10;;;;;;5007076;28;20211;-70
2021/07/06 10:29:31;;;;;;;6.78;1.60;;;20.40;87.40;;;;;;5011094;28;20208;-70
2021/07/06 10:31:58;;;;;;;8.50;1.50;;;20.40;86.90;;;;;;5006745;28;20270;-71
2021/07/06 10:34:26;;;;;;;9.35;1.30;;;20.40;87.10;;;;;;5011206;28;20227;-71
2021/07/06 10:36:53;;;;;;;16.73;1.63;;;20.40;86.80;;;;;;5002491;28;20220;-70
2021/07/06 10:39:44;;;;;;;7.90;1.55;;;20.40;87.10;;;;;;5008669;28;20713;-70
2021/07/06 10:42:13;;;;;;;7.15;1.27;;;20.40;87.40;;;;;;5009015;28;20332;-69
2021/07/06 10:44:42;;;;;;;9.55;1.50;;;20.40;87.70;;;;;;5009712;28;20200;-71
2021/07/06 10:47:37;;;;;;;6.47;1.52;;;20.50;87.80;;;;;;5008340;28;20286;-71
2021/07/06 10:50:41;;;;;;;6.88;1.40;;;20.60;87.60;;;;;;4995721;28;20193;-70
2021/07/06 10:53:20;;;;;;;10.10;1.80;;;20.60;87.80;;;;;;4993336;28;20211;-70
2021/07/06 10:55:58;;;;;;;7.43;1.30;;;20.70;87.50;;;;;;5008216;28;20212;-70
2021/07/06 10:58:49;;;;;;;6.22;1.33;;;20.70;86.70;;;;;;5009996;28;20267;-68
2021/07/06 11:01:58;;;;;;;10.98;2.20;;;20.70;86.40;;;;;;5007771;28;20577;-69
2021/07/06 11:04:54;;;;;;;8.32;1.60;;;20.70;86.30;;;;;;4919703;29;20215;-71
2021/07/06 11:07:53;;;;;;;10.68;1.48;;;20.70;86.00;;;;;;5006113;28;20251;-72
2021/07/06 11:10:21;;;;;;;10.48;1.63;;;20.70;85.80;;;;;;5009020;28;20679;-69
2021/07/06 11:12:49;;;;;;;14.93;1.70;;;20.70;85.90;;;;;;5010478;28;20208;-70
2021/07/06 11:15:30;;;;;;;7.45;1.45;;;20.70;86.40;;;;;;5011047;28;20201;-70
2021/07/06 11:18:05;;;;;;;8.93;1.40;;;20.70;85.20;;;;;;5009628;28;20230;-70
2021/07/06 11:20:36;;;;;;;8.80;1.83;;;20.60;84.80;;;;;;5007903;28;20656;-71
2021/07/06 11:23:04;;;;;;;13.18;1.58;;;20.60;84.70;;;;;;5011920;28;20331;-71
2021/07/06 11:25:41;;;;;;;11.98;1.50;;;20.60;84.60;;;;;;5014620;28;20282;-71
2021/07/06 11:28:10;;;;;;;9.65;1.65;;;20.60;84.50;;;;;;5015429;28;20303;-71
2021/07/06 11:30:47;;;;;;;6.15;1.58;;;20.60;84.50;;;;;;5010531;28;20271;-72
2021/07/06 11:33:16;;;;;;;7.05;1.75;;;20.60;84.50;;;;;;5012615;28;20204;-70
2021/07/06 11:35:45;;;;;;;13.15;1.52;;;20.60;84.40;;;;;;5010014;28;20601;-70
2021/07/06 11:38:15;;;;;;;7.07;1.70;;;20.50;84.50;;;;;;5011419;28;20249;-70
2021/07/06 11:40:44;;;;;;;5.18;1.58;;;20.50;84.80;;;;;;5013006;28;20204;-70
2021/07/06 11:43:13;;;;;;;12.60;1.90;;;20.60;84.70;;;;;;4996910;28;20239;-72
2021/07/06 11:45:39;;;;;;;8.50;1.73;;;20.50;84.60;;;;;;5013803;28;20204;-70
2021/07/06 11:48:10;;;;;;;17.63;2.28;;;20.50;84.70;;;;;;5013063;28;20195;-72
2021/07/06 11:50:38;;;;;;;13.18;1.83;;;20.50;85.70;;;;;;4995557;28;20212;-71
2021/07/06 11:53:05;;;;;;;10.02;1.80;;;20.40;84.80;;;;;;5012723;28;20207;-71
2021/07/06 11:55:34;;;;;;;19.15;1.80;;;20.30;85.00;;;;;;5011619;28;20197;-71
2021/07/06 11:58:02;;;;;;;7.93;1.60;;;20.30;85.40;;;;;;5011709;28;20216;-71
2021/07/06 12:00:31;;;;;;;13.10;2.15;;;20.30;85.80;;;;;;5011643;28;20196;-68
2021/07/06 12:03:19;;;;;;;6.75;1.77;;;20.30;86.00;;;;;;5015370;28;20278;-71
2021/07/06 12:05:47;;;;;;;9.55;1.80;;;20.30;86.20;;;;;;5013159;28;20201;-71
2021/07/06 12:08:16;;;;;;;20.63;3.05;;;20.20;86.40;;;;;;5013911;28;20200;-71
2021/07/06 12:10:54;;;;;;;10.85;1.90;;;20.30;86.60;;;;;;5011457;28;20904;-69
2021/07/06 12:13:20;;;;;;;7.57;1.73;;;20.20;86.70;;;;;;5010022;28;20322;-65
2021/07/06 12:15:48;;;;;;;10.85;1.50;;;20.30;87.10;;;;;;5010174;28;20201;-69
2021/07/06 12:18:16;;;;;;;18.15;1.88;;;20.30;87.40;;;;;;5013349;28;20227;-71
2021/07/06 12:20:53;;;;;;;7.18;1.63;;;20.30;87.80;;;;;;5012299;28;20196;-71
2021/07/06 12:23:21;;;;;;;14.10;1.80;;;20.40;87.30;;;;;;5012411;28;20239;-69
2021/07/06 12:25:48;;;;;;;8.88;1.75;;;20.40;87.40;;;;;;5011209;28;20204;-70
2021/07/06 12:28:17;;;;;;;13.60;1.70;;;20.50;87.70;;;;;;4992132;28;20270;-69
2021/07/06 12:30:44;;;;;;;8.70;1.80;;;20.50;87.70;;;;;;5013532;28;20201;-70
2021/07/06 12:33:11;;;;;;;13.77;1.80;;;20.50;87.80;;;;;;5010715;28;20227;-70
2021/07/06 12:35:38;;;;;;;9.98;1.95;;;20.60;87.90;;;;;;5013984;28;20231;-69
2021/07/06 12:38:06;;;;;;;7.18;1.67;;;20.60;88.50;;;;;;5010016;28;20212;-66
2021/07/06 12:40:35;;;;;;;17.98;2.10;;;20.60;87.30;;;;;;5013588;28;20206;-68
2021/07/06 12:43:09;;;;;;;10.77;1.50;;;20.60;87.00;;;;;;5013106;28;20216;-65
2021/07/06 12:45:36;;;;;;;12.93;1.73;;;20.60;87.00;;;;;;5012912;28;20209;-69
2021/07/06 12:48:04;;;;;;;9.77;1.88;;;20.60;86.80;;;;;;5012798;28;20266;-66
2021/07/06 12:50:32;;;;;;;8.93;1.25;;;20.60;86.50;;;;;;5009681;28;20625;-66
2021/07/06 12:53:07;;;;;;;9.95;1.60;;;20.60;86.40;;;;;;5012960;28;20704;-71
2021/07/06 12:55:34;;;;;;;12.25;1.40;;;20.50;86.20;;;;;;5010022;28;20211;-67